Choteau, MT

4:59 PM MST on November 15, 2019 (GMT -0700)
De mundo | | Change Station
Active Advisory: High Wind Watch

Elev 3815 ft 47.81 °N, 112.18 °W | Updated 5 seconds ago

Overcast
Overcast
52 °F
Feels Like 52 °F
N
3.8
Wind Variable Wind from NE
Gusts 13.0 mph

Today
High -- | Low -- °F
--% Chance of Precip.
Yesterday
High -- | Low -- °F
Precip. -- in
Pressure 29.87 in
Visibility 10.0 miles
Clouds Clear
Dew Point 34 °F
Humidity 50%
Rainfall 0.00 in
Snow Depth Not available.
7:34 AM 4:51 PM
Waning Gibbous, 88% visible
METAR KGTF 152353Z 22014KT 10SM CLR 12/M02 A2985 RMK AO2 SLP114 T01171022 10167 20117 55002
Pressure 29.87 in
Visibility 10.0 miles
Clouds Clear
Dew Point 34 °F
Humidity 50%
Rainfall 0.00 in
Snow Depth Not available.
7:34 AM 4:51 PM
Waning Gibbous, 88% visible
METAR KGTF 152353Z 22014KT 10SM CLR 12/M02 A2985 RMK AO2 SLP114 T01171022 10167 20117 55002

Get Your Daily Forecast Email!

Thanks for signing up!

Be on the lookout for a verification email in your inbox.

You'll start receiving severe weather alerts in your inbox..

×

10-Day Weather Forecast

Almanac

Astronomy

Nov. 15, 2019 Rise Set
Actual Time
Civil Twilight
Nautical Twilight
Astronomical Twilight
Moon
Length of Visible Light
Length of Day
Tomorrow will be .
, % of the Moon is Illuminated

Today's Extremes

State Highs State Lows

Community

WunderPhotos

Category 6

Welcome to Category 6. This is the collective home for Weather Underground's featured writeups by Dr. Jeff Masters (right), Bob Henson (left), Chris Burt, and other regular contributors.

Nearby

Air Quality

  Air Quality AQ Index Pollutant
Not available.

Snow Depth

Station Depth Elevation

Earthquake Activity

City Distance Mag. Time & Date
Minimum magnitude displayed is 2.5.

Coastal Water Temperatures

Place Temperature

Stations

Nearby Weather Stations

Station Location Temp. Windchill Dew Point Humidity Wind Precip. Elev Updated Type
                   

Watches & Warnings

High Wind Watch
Issued: 12:37 PM MST Nov. 15, 2019 – National Weather Service

... High wind watch in effect from Saturday evening through Sunday
afternoon...

* what... west winds 35 to 45 mph, with gusts up to 70 mph. Wind
gusts along the Rocky Mountain front, especially in wind prone
ares, could approach 85 mph.

* Where... northern Rocky Mountain front, eastern Glacier and
southern Rocky Mountain front.

* When... from Saturday evening through Sunday afternoon.

* Impacts... high winds may move loose debris, damage property and
cause power outages. Travel could be difficult, especially for
high profile vehicles.

Precautionary/preparedness actions...

Monitor the latest forecasts and warnings for updates on this
situation. Fasten loose objects or shelter objects in a safe
location prior to the onset of winds.


Moldan